createdAt,value
2019-05-07T00:00:25.423Z,2.97
2019-05-07T00:02:53.882Z,2.70
2019-05-07T00:05:22.836Z,2.60
2019-05-07T00:07:52.104Z,2.93
2019-05-07T00:10:21.843Z,3.03
2019-05-07T00:12:51.991Z,2.83
2019-05-07T00:15:22.878Z,2.97
2019-05-07T00:17:52.241Z,2.50
2019-05-07T00:20:23.016Z,3.20
2019-05-07T00:22:53.232Z,3.37
2019-05-07T00:25:22.828Z,2.77
2019-05-07T00:27:52.324Z,3.83
2019-05-07T00:30:22.350Z,4.10
2019-05-07T00:32:52.953Z,2.67
2019-05-07T00:35:25.859Z,2.77
2019-05-07T00:37:58.930Z,2.87
2019-05-07T00:40:29.033Z,2.93
2019-05-07T00:43:08.234Z,3.27
2019-05-07T00:45:38.323Z,3.27
2019-05-07T00:48:06.783Z,4.17
2019-05-07T00:50:36.891Z,3.40
2019-05-07T00:53:05.463Z,3.93
2019-05-07T00:55:34.170Z,3.17
2019-05-07T00:58:02.611Z,3.43
2019-05-07T01:00:33.259Z,3.60
2019-05-07T01:03:03.384Z,4.07
2019-05-07T01:05:32.568Z,3.57
2019-05-07T01:08:02.627Z,3.43
2019-05-07T01:10:32.992Z,3.40
2019-05-07T01:13:02.760Z,3.20
2019-05-07T01:15:34.314Z,3.97
2019-05-07T01:18:02.909Z,3.70
2019-05-07T01:20:32.895Z,3.70
2019-05-07T01:23:02.633Z,3.30
2019-05-07T01:25:32.870Z,3.43
2019-05-07T01:28:02.623Z,3.20
2019-05-07T01:30:32.466Z,3.23
2019-05-07T01:33:02.873Z,3.07
2019-05-07T01:35:33.029Z,3.47
2019-05-07T01:38:03.149Z,3.43
2019-05-07T01:40:32.410Z,3.20
2019-05-07T01:43:02.535Z,3.70
2019-05-07T01:45:43.290Z,2.93
2019-05-07T01:48:04.207Z,3.50
2019-05-07T01:50:32.230Z,2.93
2019-05-07T01:53:00.797Z,3.30
2019-05-07T01:55:29.243Z,3.37
2019-05-07T01:57:57.675Z,3.37
2019-05-07T02:00:26.136Z,3.57
2019-05-07T02:02:56.210Z,3.23
2019-05-07T02:05:28.981Z,3.83
2019-05-07T02:07:59.054Z,3.73
2019-05-07T02:10:29.153Z,2.90
2019-05-07T02:12:57.589Z,3.90
2019-05-07T02:15:26.042Z,3.10
2019-05-07T02:17:54.464Z,3.40
2019-05-07T02:20:22.916Z,3.57
2019-05-07T02:22:53.229Z,2.87
2019-05-07T02:25:22.152Z,3.90
2019-05-07T02:27:52.730Z,3.90
2019-05-07T02:30:23.673Z,3.27
2019-05-07T02:32:54.072Z,3.43
2019-05-07T02:35:23.554Z,3.33
2019-05-07T02:37:56.584Z,3.27
2019-05-07T02:40:28.977Z,3.67
2019-05-07T02:42:57.406Z,3.60
2019-05-07T02:45:32.928Z,3.97
2019-05-07T02:48:03.253Z,3.57
2019-05-07T02:50:32.917Z,4.00
2019-05-07T02:53:04.163Z,3.47
2019-05-07T02:55:34.625Z,4.47
2019-05-07T02:58:03.723Z,3.70
2019-05-07T03:00:33.351Z,3.43
2019-05-07T03:03:04.171Z,3.43
2019-05-07T03:05:34.972Z,3.73
2019-05-07T03:08:03.646Z,4.03
2019-05-07T03:10:34.102Z,4.07
2019-05-07T03:13:03.273Z,3.90
2019-05-07T03:15:33.154Z,4.40
2019-05-07T03:18:03.365Z,4.03
2019-05-07T03:20:46.486Z,3.57
2019-05-07T03:23:16.582Z,4.50
2019-05-07T03:25:49.384Z,4.07
2019-05-07T03:28:19.015Z,4.70
2019-05-07T03:30:56.841Z,4.13
2019-05-07T03:33:39.069Z,4.63
2019-05-07T03:36:08.708Z,4.33
2019-05-07T03:38:37.256Z,4.70
2019-05-07T03:41:05.683Z,4.43
2019-05-07T03:43:34.131Z,4.90
2019-05-07T03:46:10.010Z,4.47
2019-05-07T03:48:40.422Z,5.00
2019-05-07T03:51:08.871Z,5.43
2019-05-07T03:53:37.318Z,4.97
2019-05-07T03:56:05.746Z,4.40
2019-05-07T03:58:34.444Z,4.90
2019-05-07T04:01:04.242Z,4.73
2019-05-07T04:03:34.320Z,4.87
2019-05-07T04:06:04.035Z,4.40
2019-05-07T04:08:33.387Z,4.97
2019-05-07T04:11:03.586Z,4.53
2019-05-07T04:13:33.337Z,3.77
2019-05-07T04:16:03.984Z,5.00
2019-05-07T04:18:33.176Z,4.00
2019-05-07T04:21:03.740Z,7.03
2019-05-07T04:23:34.308Z,3.30
2019-05-07T04:26:09.622Z,4.07
2019-05-07T04:28:56.091Z,5.23
2019-05-07T04:31:26.175Z,4.07
2019-05-07T04:33:56.367Z,4.93
2019-05-07T04:36:26.752Z,3.80
2019-05-07T04:38:55.189Z,4.10
2019-05-07T04:41:23.774Z,3.80
2019-05-07T04:43:54.026Z,3.07
2019-05-07T04:46:23.580Z,3.50
2019-05-07T04:48:53.002Z,3.77
2019-05-07T04:51:23.424Z,3.20
2019-05-07T04:53:54.192Z,2.80
2019-05-07T04:56:23.898Z,2.83
2019-05-07T04:58:53.219Z,3.47
2019-05-07T05:01:23.767Z,3.07
2019-05-07T05:03:54.068Z,3.07
2019-05-07T05:06:24.107Z,3.00
2019-05-07T05:08:56.086Z,3.30
2019-05-07T05:11:23.829Z,2.83
2019-05-07T05:13:53.334Z,3.50
2019-05-07T05:16:26.883Z,3.70
2019-05-07T05:18:56.336Z,2.83
2019-05-07T05:21:26.507Z,2.50
2019-05-07T05:23:56.582Z,3.90
2019-05-07T05:26:25.033Z,2.47
2019-05-07T05:28:53.465Z,3.00
2019-05-07T05:31:22.370Z,3.00
2019-05-07T05:33:52.666Z,2.93
2019-05-07T05:36:22.366Z,2.73
2019-05-07T05:38:52.891Z,2.70
2019-05-07T05:41:22.635Z,3.10
2019-05-07T05:43:55.781Z,2.83
2019-05-07T05:46:25.948Z,2.73
2019-05-07T05:48:54.387Z,2.53
2019-05-07T05:51:31.686Z,2.73
2019-05-07T05:54:17.327Z,2.70
2019-05-07T05:56:53.303Z,2.80
2019-05-07T05:59:27.749Z,2.93
2019-05-07T06:02:12.148Z,2.70
2019-05-07T06:04:42.393Z,2.47
2019-05-07T06:07:22.659Z,2.40
2019-05-07T06:10:02.619Z,2.83
2019-05-07T06:12:32.963Z,2.33
2019-05-07T06:15:19.427Z,2.80
2019-05-07T06:17:51.803Z,3.33
2019-05-07T06:20:38.266Z,2.50
2019-05-07T06:23:24.942Z,3.37
2019-05-07T06:25:53.395Z,2.80
2019-05-07T06:28:22.487Z,2.67
2019-05-07T06:30:52.763Z,2.70
2019-05-07T06:33:22.983Z,4.08
2019-05-07T06:35:52.034Z,2.83
2019-05-07T06:38:21.980Z,2.52
2019-05-07T06:41:09.061Z,2.27
2019-05-07T06:43:39.277Z,2.60
2019-05-07T06:46:07.987Z,3.33
2019-05-07T06:48:42.422Z,3.05
2019-05-07T06:51:06.610Z,2.50
2019-05-07T06:53:35.056Z,2.37
2019-05-07T06:56:04.537Z,2.40
2019-05-07T06:58:43.660Z,2.50
2019-05-07T07:01:25.983Z,2.70
2019-05-07T07:03:59.251Z,2.60
2019-05-07T07:06:47.929Z,2.57
2019-05-07T07:09:23.811Z,2.70
2019-05-07T07:11:56.612Z,2.53
2019-05-07T07:14:25.089Z,2.80
2019-05-07T07:16:53.588Z,2.80
2019-05-07T07:19:23.315Z,2.07
2019-05-07T07:21:52.743Z,2.37
2019-05-07T07:24:22.151Z,2.53
2019-05-07T07:26:52.828Z,2.57
2019-05-07T07:29:22.670Z,2.60
2019-05-07T07:31:55.458Z,2.50
2019-05-07T07:34:24.788Z,2.43
2019-05-07T07:37:15.673Z,2.60
2019-05-07T07:39:43.151Z,2.12
2019-05-07T07:42:12.415Z,1.80
2019-05-07T07:44:42.587Z,1.77
2019-05-07T07:47:12.916Z,1.87
2019-05-07T07:49:42.071Z,2.70
2019-05-07T07:52:12.231Z,1.63
2019-05-07T07:54:42.948Z,2.03
2019-05-07T07:57:15.809Z,2.80
2019-05-07T07:59:57.843Z,4.40
2019-05-07T08:02:27.932Z,2.50
2019-05-07T08:04:56.380Z,2.00
2019-05-07T08:07:24.819Z,2.27
2019-05-07T08:09:53.270Z,2.30
2019-05-07T08:12:22.320Z,2.63
2019-05-07T08:14:51.915Z,1.97
2019-05-07T08:17:22.447Z,2.10
2019-05-07T08:19:52.008Z,2.92
2019-05-07T08:22:22.644Z,3.07
2019-05-07T08:24:51.907Z,2.40
2019-05-07T08:27:22.205Z,3.77
2019-05-07T08:29:52.504Z,3.50
2019-05-07T08:32:22.752Z,2.50
2019-05-07T08:34:55.825Z,3.23
2019-05-07T08:37:24.586Z,2.37
2019-05-07T08:39:53.098Z,1.97
2019-05-07T08:42:22.805Z,2.20
2019-05-07T08:45:02.946Z,2.00
2019-05-07T08:47:33.321Z,1.77
2019-05-07T08:50:05.895Z,1.57
2019-05-07T08:52:34.426Z,1.63
2019-05-07T08:55:02.867Z,2.10
2019-05-07T08:57:31.836Z,1.80
2019-05-07T09:00:02.232Z,2.22
2019-05-07T09:02:32.420Z,1.60
2019-05-07T09:05:02.765Z,1.93
2019-05-07T09:07:32.194Z,1.50
2019-05-07T09:10:02.495Z,1.77
2019-05-07T09:12:31.883Z,1.30
2019-05-07T09:15:02.168Z,1.33
2019-05-07T09:17:31.823Z,1.57
2019-05-07T09:20:02.380Z,1.37
2019-05-07T09:22:32.308Z,1.57
2019-05-07T09:25:03.101Z,1.70
2019-05-07T09:27:32.929Z,1.63
2019-05-07T09:30:03.026Z,1.20
2019-05-07T09:32:33.182Z,1.47
2019-05-07T09:35:03.270Z,1.70
2019-05-07T09:37:32.830Z,1.37
2019-05-07T09:40:03.069Z,1.50
2019-05-07T09:42:33.176Z,2.63
2019-05-07T09:45:02.042Z,1.17
2019-05-07T09:47:32.426Z,2.53
2019-05-07T09:50:05.473Z,1.50
2019-05-07T09:52:32.174Z,2.67
2019-05-07T09:55:11.029Z,1.50
2019-05-07T09:57:33.905Z,1.60
2019-05-07T10:00:02.283Z,1.00
2019-05-07T10:02:32.034Z,1.53
2019-05-07T10:05:02.387Z,1.83
2019-05-07T10:07:32.513Z,1.83
2019-05-07T10:10:03.165Z,3.00
2019-05-07T10:12:36.090Z,1.50
2019-05-07T10:15:06.490Z,3.37
2019-05-07T10:17:45.520Z,1.60
2019-05-07T10:20:21.674Z,1.83
2019-05-07T10:22:44.791Z,2.03
2019-05-07T10:25:13.673Z,1.90
2019-05-07T10:27:42.180Z,1.50
2019-05-07T10:30:12.911Z,1.80
2019-05-07T10:32:42.158Z,1.90
2019-05-07T10:35:12.762Z,2.10
2019-05-07T10:37:42.314Z,2.63
2019-05-07T10:40:12.406Z,2.47
2019-05-07T10:42:42.930Z,1.90
2019-05-07T10:45:18.890Z,1.70
2019-05-07T10:48:02.541Z,2.40
2019-05-07T10:50:38.698Z,2.43
2019-05-07T10:53:03.150Z,2.00
2019-05-07T10:55:32.896Z,1.63
2019-05-07T10:58:02.947Z,1.90
2019-05-07T11:00:33.073Z,1.80
2019-05-07T11:03:02.344Z,1.47
2019-05-07T11:05:32.600Z,2.53
2019-05-07T11:08:02.095Z,1.70
2019-05-07T11:10:32.593Z,1.53
2019-05-07T11:13:02.310Z,2.00
2019-05-07T11:15:32.790Z,1.80
2019-05-07T11:18:03.705Z,1.70
2019-05-07T11:20:32.215Z,1.93
2019-05-07T11:23:02.504Z,1.63
2019-05-07T11:25:30.827Z,1.57
2019-05-07T11:27:59.278Z,1.73
2019-05-07T11:30:27.807Z,1.77
2019-05-07T11:32:56.249Z,1.47
2019-05-07T11:35:24.810Z,1.70
2019-05-07T11:37:53.262Z,1.77
2019-05-07T11:40:22.894Z,1.47
2019-05-07T11:42:53.403Z,1.57
2019-05-07T11:45:26.412Z,1.30
2019-05-07T11:47:54.861Z,1.20
2019-05-07T11:50:24.958Z,1.80
2019-05-07T11:52:57.792Z,1.30
2019-05-07T11:55:26.226Z,1.00
2019-05-07T11:57:54.768Z,1.00
2019-05-07T12:00:42.717Z,1.50
2019-05-07T12:03:11.290Z,1.17
2019-05-07T12:05:39.731Z,1.40
2019-05-07T12:08:08.329Z,1.13
2019-05-07T12:10:36.763Z,1.27
2019-05-07T12:13:05.212Z,1.40
2019-05-07T12:15:33.659Z,1.27
2019-05-07T12:18:03.112Z,1.50
2019-05-07T12:20:32.446Z,1.43
2019-05-07T12:23:02.806Z,2.17
2019-05-07T12:25:32.167Z,1.57
2019-05-07T12:28:02.498Z,1.67
2019-05-07T12:30:51.743Z,1.70
2019-05-07T12:33:38.343Z,1.83
2019-05-07T12:36:08.525Z,1.73
2019-05-07T12:38:36.982Z,1.97
2019-05-07T12:41:07.134Z,1.50
2019-05-07T12:43:35.587Z,1.47
2019-05-07T12:46:04.096Z,1.47
2019-05-07T12:48:32.558Z,1.27
2019-05-07T12:51:01.085Z,1.50
2019-05-07T12:53:42.312Z,1.60
2019-05-07T12:56:10.377Z,1.67
2019-05-07T12:58:38.826Z,1.40
2019-05-07T13:01:22.088Z,1.67
2019-05-07T13:03:54.987Z,1.40
2019-05-07T13:06:23.429Z,1.60
2019-05-07T13:08:52.174Z,1.30
2019-05-07T13:11:22.136Z,1.90
2019-05-07T13:13:52.630Z,1.37
2019-05-07T13:16:22.106Z,1.63
2019-05-07T13:18:52.475Z,1.30
2019-05-07T13:21:22.572Z,1.60
2019-05-07T13:23:52.086Z,1.77
2019-05-07T13:26:24.335Z,1.30
2019-05-07T13:28:53.111Z,1.40
2019-05-07T13:31:22.785Z,1.20
2019-05-07T13:33:52.498Z,1.20
2019-05-07T13:36:22.096Z,1.47
2019-05-07T13:38:53.029Z,1.30
2019-05-07T13:41:29.125Z,1.53
2019-05-07T13:44:15.751Z,1.60
2019-05-07T13:46:45.029Z,1.90
2019-05-07T13:49:13.628Z,1.53
2019-05-07T13:51:42.364Z,1.40
2019-05-07T13:54:12.787Z,1.90
2019-05-07T13:56:41.936Z,1.43
2019-05-07T13:59:13.164Z,1.77
2019-05-07T14:01:42.979Z,1.40
2019-05-07T14:04:12.888Z,1.10
2019-05-07T14:06:42.983Z,1.37
2019-05-07T14:09:15.204Z,0.90
2019-05-07T14:11:43.773Z,1.30
2019-05-07T14:14:12.478Z,1.10
2019-05-07T14:16:44.751Z,1.13
2019-05-07T14:19:12.988Z,1.00
2019-05-07T14:21:42.219Z,1.50
2019-05-07T14:24:12.450Z,1.27
2019-05-07T14:26:42.224Z,1.20
2019-05-07T14:29:11.010Z,1.10
2019-05-07T14:31:39.461Z,1.07
2019-05-07T14:34:09.537Z,1.13
2019-05-07T14:36:39.626Z,0.97
2019-05-07T14:39:08.976Z,1.27
2019-05-07T14:41:37.423Z,1.80
2019-05-07T14:44:07.767Z,1.10
2019-05-07T14:46:47.342Z,1.07
2019-05-07T14:49:06.460Z,1.20
2019-05-07T14:51:34.906Z,1.50
2019-05-07T14:54:03.419Z,1.10
2019-05-07T14:56:32.385Z,1.57
2019-05-07T14:59:02.269Z,1.03
2019-05-07T15:01:31.226Z,1.20
2019-05-07T15:04:02.159Z,1.50
2019-05-07T15:06:32.386Z,1.17
2019-05-07T15:09:00.338Z,1.07
2019-05-07T15:11:28.777Z,1.20
2019-05-07T15:13:57.217Z,1.13
2019-05-07T15:16:25.754Z,1.87
2019-05-07T15:18:56.139Z,1.50
2019-05-07T15:21:24.665Z,1.20
2019-05-07T15:23:54.618Z,2.00
2019-05-07T15:26:23.190Z,1.17
2019-05-07T15:28:59.243Z,1.50
2019-05-07T15:31:45.255Z,1.23
2019-05-07T15:34:13.699Z,1.83
2019-05-07T15:36:42.468Z,1.60
2019-05-07T15:39:13.237Z,1.60
2019-05-07T15:41:42.475Z,1.33
2019-05-07T15:44:11.954Z,1.50
2019-05-07T15:46:42.681Z,1.67
2019-05-07T15:49:12.518Z,1.50
2019-05-07T15:51:41.871Z,1.33
2019-05-07T15:54:12.821Z,1.10
2019-05-07T15:56:41.065Z,1.67
2019-05-07T15:59:12.826Z,1.40
2019-05-07T16:01:41.981Z,1.80
2019-05-07T16:04:21.748Z,1.90
2019-05-07T16:06:42.462Z,1.30
2019-05-07T16:09:12.964Z,1.17
2019-05-07T16:11:43.112Z,1.40
2019-05-07T16:14:14.676Z,1.10
2019-05-07T16:16:45.088Z,1.57
2019-05-07T16:19:15.184Z,1.70
2019-05-07T16:21:43.635Z,1.60
2019-05-07T16:24:12.240Z,1.50
2019-05-07T16:26:41.837Z,1.30
2019-05-07T16:29:13.024Z,1.43
2019-05-07T16:31:40.773Z,1.47
2019-05-07T16:34:09.985Z,1.57
2019-05-07T16:36:38.422Z,1.53
2019-05-07T16:39:07.621Z,1.70
2019-05-07T16:41:36.078Z,1.43
2019-05-07T16:44:04.881Z,1.50
2019-05-07T16:46:33.350Z,1.73
2019-05-07T16:49:02.311Z,1.43
2019-05-07T16:51:32.878Z,1.50
2019-05-07T16:54:03.205Z,1.53
2019-05-07T16:56:33.177Z,1.80
2019-05-07T16:59:03.039Z,2.10
2019-05-07T17:01:32.464Z,1.87
2019-05-07T17:04:02.742Z,1.77
2019-05-07T17:06:32.119Z,2.57
2019-05-07T17:09:02.790Z,1.30
2019-05-07T17:11:32.043Z,1.90
2019-05-07T17:14:02.317Z,1.57
2019-05-07T17:16:31.736Z,1.83
2019-05-07T17:19:02.366Z,1.97
2019-05-07T17:21:32.474Z,1.30
2019-05-07T17:24:02.605Z,1.70
2019-05-07T17:26:30.932Z,1.40
2019-05-07T17:28:59.425Z,1.80
2019-05-07T17:31:27.868Z,1.63
2019-05-07T17:33:56.296Z,2.00
2019-05-07T17:36:24.756Z,1.60
2019-05-07T17:38:53.186Z,1.50
2019-05-07T17:41:26.775Z,1.77
2019-05-07T17:43:52.186Z,1.40
2019-05-07T17:46:21.757Z,1.67
2019-05-07T17:48:52.176Z,1.80
2019-05-07T17:51:22.126Z,1.80
2019-05-07T17:53:59.711Z,2.53
2019-05-07T17:56:22.334Z,1.90
2019-05-07T17:58:52.221Z,1.57
2019-05-07T18:01:22.518Z,1.50
2019-05-07T18:03:52.050Z,1.70
2019-05-07T18:06:20.549Z,3.00
2019-05-07T18:08:49.004Z,1.70
2019-05-07T18:11:21.183Z,1.87
2019-05-07T18:13:47.729Z,1.80
2019-05-07T18:16:22.290Z,1.30
2019-05-07T18:18:52.004Z,1.50
2019-05-07T18:21:22.016Z,1.70
2019-05-07T18:23:51.731Z,2.37
2019-05-07T18:26:29.748Z,2.03
2019-05-07T18:28:52.204Z,1.93
2019-05-07T18:31:22.587Z,2.10
2019-05-07T18:33:55.103Z,2.27
2019-05-07T18:36:23.537Z,2.13
2019-05-07T18:38:52.863Z,2.03
2019-05-07T18:41:22.275Z,1.80
2019-05-07T18:43:54.380Z,2.07
2019-05-07T18:46:22.170Z,1.70
2019-05-07T18:48:51.850Z,1.80
2019-05-07T18:51:20.487Z,2.63
2019-05-07T18:53:48.944Z,2.87
2019-05-07T18:56:17.378Z,1.93
2019-05-07T18:58:45.994Z,2.60
2019-05-07T19:01:15.877Z,1.97
2019-05-07T19:03:44.530Z,1.83
2019-05-07T19:06:13.621Z,1.50
2019-05-07T19:08:42.437Z,1.47
2019-05-07T19:11:12.299Z,1.90
2019-05-07T19:13:42.030Z,1.70
2019-05-07T19:16:12.501Z,1.73
2019-05-07T19:18:43.070Z,1.90
2019-05-07T19:21:14.556Z,1.80
2019-05-07T19:23:43.027Z,2.23
2019-05-07T19:26:13.091Z,1.80
2019-05-07T19:28:41.917Z,2.17
2019-05-07T19:31:12.510Z,2.70
2019-05-07T19:33:42.549Z,2.70
2019-05-07T19:36:11.206Z,3.17
2019-05-07T19:38:42.083Z,5.80
2019-05-07T19:41:12.350Z,5.33
2019-05-07T19:43:41.935Z,4.63
2019-05-07T19:46:12.338Z,4.67
2019-05-07T19:48:40.779Z,4.97
2019-05-07T19:51:12.710Z,5.13
2019-05-07T19:53:41.950Z,4.37
2019-05-07T19:56:18.191Z,4.70
2019-05-07T19:58:46.694Z,4.20
2019-05-07T20:01:16.994Z,4.90
2019-05-07T20:03:45.499Z,4.40
2019-05-07T20:06:14.022Z,4.37
2019-05-07T20:08:43.602Z,4.50
2019-05-07T20:11:19.746Z,4.50
2019-05-07T20:13:48.179Z,4.03
2019-05-07T20:16:20.140Z,4.40
2019-05-07T20:18:52.255Z,4.97
2019-05-07T20:21:18.808Z,5.70
2019-05-07T20:23:47.352Z,4.97
2019-05-07T20:26:15.883Z,5.17
2019-05-07T20:28:44.313Z,4.83
2019-05-07T20:31:12.740Z,5.23
2019-05-07T20:33:42.256Z,5.30
2019-05-07T20:36:11.021Z,4.70
2019-05-07T20:38:39.551Z,5.20
2019-05-07T20:41:08.036Z,4.67
2019-05-07T20:43:36.503Z,4.80
2019-05-07T20:46:04.947Z,5.10
2019-05-07T20:48:33.377Z,5.03
2019-05-07T20:51:03.300Z,5.53
2019-05-07T20:53:52.298Z,4.50
2019-05-07T20:56:39.426Z,4.90
2019-05-07T20:59:07.861Z,4.93
2019-05-07T21:01:36.296Z,3.87
2019-05-07T21:04:04.866Z,4.13
2019-05-07T21:06:33.297Z,3.73
2019-05-07T21:09:01.738Z,4.33
2019-05-07T21:11:32.162Z,4.23
2019-05-07T21:14:00.351Z,4.37
2019-05-07T21:16:28.843Z,3.83
2019-05-07T21:18:57.287Z,3.90
2019-05-07T21:21:25.710Z,4.30
2019-05-07T21:23:54.152Z,3.70
2019-05-07T21:26:22.695Z,4.40
2019-05-07T21:28:52.945Z,3.70
2019-05-07T21:31:22.778Z,4.10
2019-05-07T21:33:52.367Z,3.17
2019-05-07T21:36:22.840Z,3.53
2019-05-07T21:38:51.872Z,4.77
2019-05-07T21:41:22.568Z,4.33
2019-05-07T21:43:52.594Z,3.97
2019-05-07T21:46:22.220Z,4.57
2019-05-07T21:48:51.812Z,4.40
2019-05-07T21:51:22.885Z,4.87
2019-05-07T21:53:53.771Z,5.20
2019-05-07T21:56:36.026Z,4.67
2019-05-07T21:59:09.201Z,4.07
2019-05-07T22:01:39.285Z,5.07
2019-05-07T22:04:07.732Z,4.87
2019-05-07T22:06:36.173Z,4.47
2019-05-07T22:09:07.491Z,4.57
2019-05-07T22:11:36.002Z,4.97
2019-05-07T22:14:04.524Z,4.53
2019-05-07T22:16:33.045Z,4.83
2019-05-07T22:19:02.606Z,4.73
2019-05-07T22:21:33.969Z,4.13
2019-05-07T22:24:02.862Z,4.00
2019-05-07T22:26:32.203Z,3.90
2019-05-07T22:29:03.087Z,3.80
2019-05-07T22:31:32.734Z,3.40
2019-05-07T22:34:12.860Z,3.30
2019-05-07T22:36:43.177Z,3.37
2019-05-07T22:39:12.577Z,3.87
2019-05-07T22:41:42.484Z,3.57
2019-05-07T22:44:12.036Z,3.17
2019-05-07T22:46:42.117Z,3.43
2019-05-07T22:49:12.231Z,3.23
2019-05-07T22:51:40.926Z,3.57
2019-05-07T22:54:09.375Z,3.30
2019-05-07T22:56:57.764Z,2.97
2019-05-07T22:59:26.202Z,3.70
2019-05-07T23:01:54.899Z,2.73
2019-05-07T23:04:23.680Z,2.80
2019-05-07T23:06:52.814Z,3.07
2019-05-07T23:09:22.334Z,3.00
2019-05-07T23:11:52.675Z,3.20
2019-05-07T23:14:22.574Z,2.87
2019-05-07T23:16:55.050Z,2.40
2019-05-07T23:19:22.036Z,2.90
2019-05-07T23:21:52.136Z,2.47
2019-05-07T23:24:24.497Z,2.33
2019-05-07T23:26:53.335Z,2.23
2019-05-07T23:29:22.416Z,2.70
2019-05-07T23:31:52.799Z,2.40
2019-05-07T23:34:22.112Z,2.20
2019-05-07T23:36:53.065Z,2.27
2019-05-07T23:39:22.599Z,2.63
2019-05-07T23:41:55.408Z,2.40
2019-05-07T23:44:23.840Z,2.70
2019-05-07T23:46:52.353Z,2.50
2019-05-07T23:49:23.000Z,2.37
2019-05-07T23:51:52.764Z,2.10
2019-05-07T23:54:23.035Z,2.30
2019-05-07T23:57:04.932Z,2.47
2019-05-07T23:59:22.181Z,2.53
